sensor_id;sensor_type;location;lat;lon;timestamp;pressure;altitude;pressure_sealevel;temperature;humidity
22550;BME280;11441;57.164;-2.120;2023-03-21T00:00:58;99902.25;;;8.29;100.00
22550;BME280;11441;57.164;-2.120;2023-03-21T00:03:44;99904.59;;;8.11;100.00
22550;BME280;11441;57.164;-2.120;2023-03-21T00:06:13;99904.31;;;8.16;100.00
22550;BME280;11441;57.164;-2.120;2023-03-21T00:08:41;99896.09;;;8.16;100.00
22550;BME280;11441;57.164;-2.120;2023-03-21T00:11:10;99896.09;;;8.16;100.00
22550;BME280;11441;57.164;-2.120;2023-03-21T00:13:38;99902.00;;;8.18;100.00
22550;BME280;11441;57.164;-2.120;2023-03-21T00:16:13;99889.81;;;8.16;100.00
22550;BME280;11441;57.164;-2.120;2023-03-21T00:19:03;99885.63;;;8.22;100.00
22550;BME280;11441;57.164;-2.120;2023-03-21T00:21:31;99879.16;;;8.30;100.00
22550;BME280;11441;57.164;-2.120;2023-03-21T00:24:18;99879.47;;;8.09;100.00
22550;BME280;11441;57.164;-2.120;2023-03-21T00:26:46;99865.50;;;8.14;100.00
22550;BME280;11441;57.164;-2.120;2023-03-21T00:29:13;99870.41;;;8.24;100.00
22550;BME280;11441;57.164;-2.120;2023-03-21T00:31:40;99861.69;;;8.19;100.00
22550;BME280;11441;57.164;-2.120;2023-03-21T00:34:06;99833.78;;;8.17;100.00
22550;BME280;11441;57.164;-2.120;2023-03-21T00:36:33;99844.19;;;8.27;100.00
22550;BME280;11441;57.164;-2.120;2023-03-21T00:39:00;99840.16;;;8.21;100.00
22550;BME280;11441;57.164;-2.120;2023-03-21T00:41:27;99829.03;;;8.14;100.00
22550;BME280;11441;57.164;-2.120;2023-03-21T00:44:07;99837.13;;;8.06;100.00
22550;BME280;11441;57.164;-2.120;2023-03-21T00:46:34;99826.66;;;8.12;100.00
22550;BME280;11441;57.164;-2.120;2023-03-21T00:49:17;99832.44;;;8.26;100.00
22550;BME280;11441;57.164;-2.120;2023-03-21T00:51:46;99829.47;;;8.16;100.00
22550;BME280;11441;57.164;-2.120;2023-03-21T00:54:17;99823.00;;;8.24;100.00
22550;BME280;11441;57.164;-2.120;2023-03-21T00:56:43;99810.84;;;8.25;100.00
22550;BME280;11441;57.164;-2.120;2023-03-21T00:59:29;99805.56;;;8.16;100.00
22550;BME280;11441;57.164;-2.120;2023-03-21T01:01:56;99797.19;;;8.28;100.00
22550;BME280;11441;57.164;-2.120;2023-03-21T01:04:44;99793.03;;;8.15;100.00
22550;BME280;11441;57.164;-2.120;2023-03-21T01:07:11;99792.22;;;8.15;100.00
22550;BME280;11441;57.164;-2.120;2023-03-21T01:09:37;99791.06;;;8.16;100.00
22550;BME280;11441;57.164;-2.120;2023-03-21T01:12:04;99786.22;;;8.28;100.00
22550;BME280;11441;57.164;-2.120;2023-03-21T01:14:31;99775.91;;;8.41;100.00
22550;BME280;11441;57.164;-2.120;2023-03-21T01:16:58;99775.66;;;8.46;100.00
22550;BME280;11441;57.164;-2.120;2023-03-21T01:19:25;99769.00;;;8.47;100.00
22550;BME280;11441;57.164;-2.120;2023-03-21T01:22:14;99759.09;;;8.43;100.00
22550;BME280;11441;57.164;-2.120;2023-03-21T01:24:41;99761.13;;;8.46;100.00
22550;BME280;11441;57.164;-2.120;2023-03-21T01:27:21;99756.44;;;8.46;100.00
22550;BME280;11441;57.164;-2.120;2023-03-21T01:29:48;99752.94;;;8.49;100.00
22550;BME280;11441;57.164;-2.120;2023-03-21T01:32:14;99742.84;;;8.54;100.00
22550;BME280;11441;57.164;-2.120;2023-03-21T01:34:42;99735.22;;;8.43;100.00
22550;BME280;11441;57.164;-2.120;2023-03-21T01:37:09;99731.50;;;8.55;100.00
22550;BME280;11441;57.164;-2.120;2023-03-21T01:39:42;99732.06;;;8.64;100.00
22550;BME280;11441;57.164;-2.120;2023-03-21T01:42:12;99732.72;;;8.58;100.00
22550;BME280;11441;57.164;-2.120;2023-03-21T01:47:54;99719.88;;;8.42;100.00
22550;BME280;11441;57.164;-2.120;2023-03-21T01:50:24;99716.19;;;8.54;100.00
22550;BME280;11441;57.164;-2.120;2023-03-21T01:53:13;99710.84;;;8.42;100.00
22550;BME280;11441;57.164;-2.120;2023-03-21T01:55:41;99706.72;;;8.52;100.00
22550;BME280;11441;57.164;-2.120;2023-03-21T01:58:27;99699.31;;;8.52;100.00
22550;BME280;11441;57.164;-2.120;2023-03-21T02:01:04;99690.25;;;8.52;100.00
22550;BME280;11441;57.164;-2.120;2023-03-21T02:03:50;99681.81;;;8.41;100.00
22550;BME280;11441;57.164;-2.120;2023-03-21T02:09:08;99666.44;;;8.56;100.00
22550;BME280;11441;57.164;-2.120;2023-03-21T02:11:38;99657.56;;;8.43;100.00
22550;BME280;11441;57.164;-2.120;2023-03-21T02:14:05;99668.00;;;8.57;100.00
22550;BME280;11441;57.164;-2.120;2023-03-21T02:26:41;99655.63;;;8.43;100.00
22550;BME280;11441;57.164;-2.120;2023-03-21T02:29:24;99651.53;;;8.57;100.00
22550;BME280;11441;57.164;-2.120;2023-03-21T02:35:27;99647.63;;;8.58;100.00
22550;BME280;11441;57.164;-2.120;2023-03-21T02:40:52;99638.09;;;8.52;100.00
22550;BME280;11441;57.164;-2.120;2023-03-21T02:43:37;99627.22;;;8.55;100.00
22550;BME280;11441;57.164;-2.120;2023-03-21T02:46:16;99625.25;;;8.56;100.00
22550;BME280;11441;57.164;-2.120;2023-03-21T02:49:16;99619.72;;;8.52;100.00
22550;BME280;11441;57.164;-2.120;2023-03-21T02:52:07;99609.41;;;8.45;100.00
22550;BME280;11441;57.164;-2.120;2023-03-21T02:54:49;99611.16;;;8.57;100.00
22550;BME280;11441;57.164;-2.120;2023-03-21T02:57:22;99602.31;;;8.67;100.00
22550;BME280;11441;57.164;-2.120;2023-03-21T02:59:58;99595.50;;;8.58;100.00
22550;BME280;11441;57.164;-2.120;2023-03-21T03:02:41;99584.19;;;8.63;100.00
22550;BME280;11441;57.164;-2.120;2023-03-21T03:05:14;99587.97;;;8.55;100.00
22550;BME280;11441;57.164;-2.120;2023-03-21T03:07:52;99583.22;;;8.52;100.00
22550;BME280;11441;57.164;-2.120;2023-03-21T03:10:35;99577.94;;;8.62;100.00
22550;BME280;11441;57.164;-2.120;2023-03-21T03:21:27;99547.22;;;8.57;100.00
22550;BME280;11441;57.164;-2.120;2023-03-21T03:29:16;99545.88;;;8.43;100.00
22550;BME280;11441;57.164;-2.120;2023-03-21T03:31:49;99531.84;;;8.48;100.00
22550;BME280;11441;57.164;-2.120;2023-03-21T03:34:22;99535.38;;;8.49;100.00
22550;BME280;11441;57.164;-2.120;2023-03-21T03:36:56;99546.50;;;8.60;100.00
22550;BME280;11441;57.164;-2.120;2023-03-21T03:39:30;99539.81;;;8.57;100.00
22550;BME280;11441;57.164;-2.120;2023-03-21T03:42:02;99532.78;;;8.60;100.00
22550;BME280;11441;57.164;-2.120;2023-03-21T03:44:56;99533.09;;;8.55;100.00
22550;BME280;11441;57.164;-2.120;2023-03-21T03:47:50;99522.59;;;8.60;100.00
22550;BME280;11441;57.164;-2.120;2023-03-21T03:50:40;99514.78;;;8.62;100.00
22550;BME280;11441;57.164;-2.120;2023-03-21T03:53:32;99520.03;;;8.71;100.00
22550;BME280;11441;57.164;-2.120;2023-03-21T03:56:03;99509.63;;;8.57;100.00
22550;BME280;11441;57.164;-2.120;2023-03-21T03:58:34;99510.34;;;8.54;100.00
22550;BME280;11441;57.164;-2.120;2023-03-21T04:01:13;99507.34;;;8.63;100.00
22550;BME280;11441;57.164;-2.120;2023-03-21T04:03:42;99511.09;;;8.51;100.00
22550;BME280;11441;57.164;-2.120;2023-03-21T04:06:20;99500.59;;;8.57;100.00
22550;BME280;11441;57.164;-2.120;2023-03-21T04:08:49;99498.84;;;8.72;100.00
22550;BME280;11441;57.164;-2.120;2023-03-21T04:11:17;99490.31;;;8.80;100.00
22550;BME280;11441;57.164;-2.120;2023-03-21T04:13:48;99495.31;;;8.71;100.00
22550;BME280;11441;57.164;-2.120;2023-03-21T04:16:20;99485.06;;;8.68;100.00
22550;BME280;11441;57.164;-2.120;2023-03-21T04:18:49;99487.50;;;8.73;100.00
22550;BME280;11441;57.164;-2.120;2023-03-21T04:21:17;99487.16;;;8.78;100.00
22550;BME280;11441;57.164;-2.120;2023-03-21T04:23:44;99480.09;;;8.77;100.00
22550;BME280;11441;57.164;-2.120;2023-03-21T04:26:11;99468.41;;;8.84;100.00
22550;BME280;11441;57.164;-2.120;2023-03-21T04:28:43;99477.56;;;8.65;100.00
22550;BME280;11441;57.164;-2.120;2023-03-21T04:31:39;99462.84;;;8.77;100.00
22550;BME280;11441;57.164;-2.120;2023-03-21T04:34:11;99453.72;;;8.69;100.00
22550;BME280;11441;57.164;-2.120;2023-03-21T04:37:00;99453.31;;;8.71;100.00
22550;BME280;11441;57.164;-2.120;2023-03-21T04:39:45;99448.50;;;8.91;100.00
22550;BME280;11441;57.164;-2.120;2023-03-21T04:42:14;99442.78;;;8.73;100.00
22550;BME280;11441;57.164;-2.120;2023-03-21T04:44:41;99435.75;;;8.75;100.00
22550;BME280;11441;57.164;-2.120;2023-03-21T04:47:08;99441.00;;;8.87;100.00
22550;BME280;11441;57.164;-2.120;2023-03-21T04:49:35;99429.63;;;8.89;100.00
22550;BME280;11441;57.164;-2.120;2023-03-21T04:52:02;99431.53;;;8.81;100.00
22550;BME280;11441;57.164;-2.120;2023-03-21T04:54:29;99433.13;;;8.86;100.00
22550;BME280;11441;57.164;-2.120;2023-03-21T04:56:58;99421.94;;;8.68;100.00
22550;BME280;11441;57.164;-2.120;2023-03-21T04:59:26;99415.88;;;8.85;100.00
22550;BME280;11441;57.164;-2.120;2023-03-21T05:01:53;99413.16;;;8.89;100.00
22550;BME280;11441;57.164;-2.120;2023-03-21T05:04:22;99416.69;;;8.90;100.00
22550;BME280;11441;57.164;-2.120;2023-03-21T05:06:49;99425.44;;;8.99;100.00
22550;BME280;11441;57.164;-2.120;2023-03-21T05:09:16;99419.16;;;8.98;100.00
22550;BME280;11441;57.164;-2.120;2023-03-21T05:12:02;99420.28;;;8.94;100.00
22550;BME280;11441;57.164;-2.120;2023-03-21T05:14:30;99408.53;;;8.97;100.00
22550;BME280;11441;57.164;-2.120;2023-03-21T05:16:58;99398.81;;;9.03;100.00
22550;BME280;11441;57.164;-2.120;2023-03-21T05:19:44;99398.84;;;9.06;100.00
22550;BME280;11441;57.164;-2.120;2023-03-21T05:22:11;99390.16;;;9.01;100.00
22550;BME280;11441;57.164;-2.120;2023-03-21T05:24:40;99387.19;;;8.83;100.00
22550;BME280;11441;57.164;-2.120;2023-03-21T05:27:13;99383.84;;;9.00;100.00
22550;BME280;11441;57.164;-2.120;2023-03-21T05:29:51;99384.75;;;9.08;100.00
22550;BME280;11441;57.164;-2.120;2023-03-21T05:32:18;99370.66;;;9.13;100.00
22550;BME280;11441;57.164;-2.120;2023-03-21T05:34:45;99382.41;;;9.10;100.00
22550;BME280;11441;57.164;-2.120;2023-03-21T05:37:12;99375.25;;;9.02;100.00
22550;BME280;11441;57.164;-2.120;2023-03-21T05:39:57;99365.47;;;9.04;100.00
22550;BME280;11441;57.164;-2.120;2023-03-21T05:42:29;99360.06;;;9.12;100.00
22550;BME280;11441;57.164;-2.120;2023-03-21T05:45:14;99360.06;;;9.12;100.00
22550;BME280;11441;57.164;-2.120;2023-03-21T05:48:00;99351.47;;;9.17;100.00
22550;BME280;11441;57.164;-2.120;2023-03-21T05:50:32;99344.59;;;8.96;100.00
22550;BME280;11441;57.164;-2.120;2023-03-21T05:53:09;99343.88;;;9.03;100.00
22550;BME280;11441;57.164;-2.120;2023-03-21T05:55:36;99339.53;;;9.02;100.00
22550;BME280;11441;57.164;-2.120;2023-03-21T05:58:07;99338.34;;;8.99;100.00
22550;BME280;11441;57.164;-2.120;2023-03-21T06:00:35;99346.94;;;8.94;100.00
22550;BME280;11441;57.164;-2.120;2023-03-21T06:03:24;99333.22;;;8.98;100.00
22550;BME280;11441;57.164;-2.120;2023-03-21T06:06:17;99340.72;;;9.01;100.00
22550;BME280;11441;57.164;-2.120;2023-03-21T06:08:55;99311.38;;;9.12;100.00
22550;BME280;11441;57.164;-2.120;2023-03-21T06:11:44;99315.41;;;9.22;100.00
22550;BME280;11441;57.164;-2.120;2023-03-21T06:14:31;99310.22;;;9.13;100.00
22550;BME280;11441;57.164;-2.120;2023-03-21T06:17:11;99311.44;;;9.19;100.00
22550;BME280;11441;57.164;-2.120;2023-03-21T06:19:52;99312.59;;;9.15;100.00
22550;BME280;11441;57.164;-2.120;2023-03-21T06:22:24;99331.47;;;9.16;100.00
22550;BME280;11441;57.164;-2.120;2023-03-21T06:24:51;99333.84;;;9.18;100.00
22550;BME280;11441;57.164;-2.120;2023-03-21T06:27:18;99328.72;;;9.16;100.00
22550;BME280;11441;57.164;-2.120;2023-03-21T06:29:53;99342.38;;;9.09;100.00
22550;BME280;11441;57.164;-2.120;2023-03-21T06:32:21;99336.09;;;9.12;100.00
22550;BME280;11441;57.164;-2.120;2023-03-21T06:35:07;99321.00;;;8.92;100.00
22550;BME280;11441;57.164;-2.120;2023-03-21T06:37:35;99325.03;;;9.01;100.00
22550;BME280;11441;57.164;-2.120;2023-03-21T06:40:02;99321.09;;;8.99;100.00
22550;BME280;11441;57.164;-2.120;2023-03-21T06:42:30;99325.06;;;9.05;100.00
22550;BME280;11441;57.164;-2.120;2023-03-21T06:45:05;99312.03;;;8.98;100.00
22550;BME280;11441;57.164;-2.120;2023-03-21T06:47:32;99317.66;;;9.09;100.00
22550;BME280;11441;57.164;-2.120;2023-03-21T06:50:03;99319.47;;;8.94;100.00
22550;BME280;11441;57.164;-2.120;2023-03-21T06:52:38;99320.31;;;9.02;100.00
22550;BME280;11441;57.164;-2.120;2023-03-21T06:55:05;99304.19;;;8.97;100.00
22550;BME280;11441;57.164;-2.120;2023-03-21T06:57:32;99314.47;;;9.07;100.00
22550;BME280;11441;57.164;-2.120;2023-03-21T06:59:59;99317.53;;;8.98;100.00
22550;BME280;11441;57.164;-2.120;2023-03-21T07:02:27;99302.97;;;8.91;100.00
22550;BME280;11441;57.164;-2.120;2023-03-21T07:05:15;99295.94;;;8.97;100.00
22550;BME280;11441;57.164;-2.120;2023-03-21T07:07:43;99302.94;;;8.87;100.00
22550;BME280;11441;57.164;-2.120;2023-03-21T07:10:11;99319.03;;;8.89;100.00
22550;BME280;11441;57.164;-2.120;2023-03-21T07:12:46;99328.75;;;8.82;100.00
22550;BME280;11441;57.164;-2.120;2023-03-21T07:15:34;99310.31;;;8.83;100.00
22550;BME280;11441;57.164;-2.120;2023-03-21T07:18:05;99311.88;;;8.80;100.00
22550;BME280;11441;57.164;-2.120;2023-03-21T07:20:32;99308.38;;;8.83;100.00
22550;BME280;11441;57.164;-2.120;2023-03-21T07:22:59;99305.31;;;8.89;100.00
22550;BME280;11441;57.164;-2.120;2023-03-21T07:25:26;99304.94;;;8.90;100.00
22550;BME280;11441;57.164;-2.120;2023-03-21T07:27:56;99298.28;;;8.95;100.00
22550;BME280;11441;57.164;-2.120;2023-03-21T07:30:23;99296.88;;;9.12;100.00
22550;BME280;11441;57.164;-2.120;2023-03-21T07:32:49;99292.09;;;9.05;100.00
22550;BME280;11441;57.164;-2.120;2023-03-21T07:35:16;99319.13;;;8.99;100.00
22550;BME280;11441;57.164;-2.120;2023-03-21T07:37:43;99330.97;;;9.07;100.00
22550;BME280;11441;57.164;-2.120;2023-03-21T07:40:14;99316.53;;;9.17;100.00
22550;BME280;11441;57.164;-2.120;2023-03-21T07:42:41;99319.34;;;9.24;100.00
22550;BME280;11441;57.164;-2.120;2023-03-21T07:45:10;99323.75;;;9.33;100.00
22550;BME280;11441;57.164;-2.120;2023-03-21T07:47:43;99316.72;;;9.35;100.00
22550;BME280;11441;57.164;-2.120;2023-03-21T07:50:11;99314.81;;;9.43;100.00
22550;BME280;11441;57.164;-2.120;2023-03-21T07:52:38;99320.25;;;9.39;100.00
22550;BME280;11441;57.164;-2.120;2023-03-21T07:55:05;99310.41;;;9.35;100.00
22550;BME280;11441;57.164;-2.120;2023-03-21T07:57:32;99315.88;;;9.31;100.00
22550;BME280;11441;57.164;-2.120;2023-03-21T07:59:59;99304.09;;;9.31;100.00
22550;BME280;11441;57.164;-2.120;2023-03-21T08:02:26;99299.78;;;9.33;100.00
22550;BME280;11441;57.164;-2.120;2023-03-21T08:04:53;99299.88;;;9.40;100.00
22550;BME280;11441;57.164;-2.120;2023-03-21T08:07:20;99298.72;;;9.45;100.00
22550;BME280;11441;57.164;-2.120;2023-03-21T08:09:47;99304.25;;;9.52;100.00
22550;BME280;11441;57.164;-2.120;2023-03-21T08:12:14;99311.69;;;9.48;100.00
22550;BME280;11441;57.164;-2.120;2023-03-21T08:14:40;99312.97;;;9.58;100.00
22550;BME280;11441;57.164;-2.120;2023-03-21T08:17:07;99304.72;;;9.58;100.00
22550;BME280;11441;57.164;-2.120;2023-03-21T08:19:35;99301.97;;;9.58;100.00
22550;BME280;11441;57.164;-2.120;2023-03-21T08:22:21;99310.34;;;9.79;100.00
22550;BME280;11441;57.164;-2.120;2023-03-21T08:24:48;99291.09;;;9.79;100.00
22550;BME280;11441;57.164;-2.120;2023-03-21T08:27:15;99296.22;;;9.81;100.00
22550;BME280;11441;57.164;-2.120;2023-03-21T08:29:42;99300.16;;;9.87;100.00
22550;BME280;11441;57.164;-2.120;2023-03-21T08:32:09;99292.41;;;10.00;100.00
22550;BME280;11441;57.164;-2.120;2023-03-21T08:34:35;99287.69;;;10.00;100.00
22550;BME280;11441;57.164;-2.120;2023-03-21T08:37:02;99287.31;;;10.06;100.00
22550;BME280;11441;57.164;-2.120;2023-03-21T08:39:29;99270.03;;;10.05;100.00
22550;BME280;11441;57.164;-2.120;2023-03-21T08:41:56;99275.16;;;10.10;100.00
22550;BME280;11441;57.164;-2.120;2023-03-21T08:44:41;99278.72;;;10.22;100.00
22550;BME280;11441;57.164;-2.120;2023-03-21T08:47:08;99279.13;;;10.20;100.00
22550;BME280;11441;57.164;-2.120;2023-03-21T08:49:35;99281.47;;;10.22;100.00
22550;BME280;11441;57.164;-2.120;2023-03-21T08:52:02;99286.59;;;10.27;100.00
22550;BME280;11441;57.164;-2.120;2023-03-21T08:54:29;99282.63;;;10.17;100.00
22550;BME280;11441;57.164;-2.120;2023-03-21T08:56:56;99283.41;;;10.07;100.00
22550;BME280;11441;57.164;-2.120;2023-03-21T08:59:23;99276.78;;;10.26;100.00
22550;BME280;11441;57.164;-2.120;2023-03-21T09:01:49;99271.25;;;10.26;100.00
22550;BME280;11441;57.164;-2.120;2023-03-21T09:04:16;99267.75;;;10.29;100.00
22550;BME280;11441;57.164;-2.120;2023-03-21T09:06:44;99269.72;;;10.25;100.00
22550;BME280;11441;57.164;-2.120;2023-03-21T09:09:15;99273.97;;;10.15;100.00
22550;BME280;11441;57.164;-2.120;2023-03-21T09:11:42;99267.72;;;10.25;100.00
22550;BME280;11441;57.164;-2.120;2023-03-21T09:14:09;99258.31;;;10.23;100.00
22550;BME280;11441;57.164;-2.120;2023-03-21T09:16:37;99256.34;;;10.27;100.00
22550;BME280;11441;57.164;-2.120;2023-03-21T09:19:04;99258.00;;;10.38;100.00
22550;BME280;11441;57.164;-2.120;2023-03-21T09:21:34;99251.31;;;10.43;100.00
22550;BME280;11441;57.164;-2.120;2023-03-21T09:24:01;99238.34;;;10.40;100.00
22550;BME280;11441;57.164;-2.120;2023-03-21T09:26:46;99248.59;;;10.54;100.00
22550;BME280;11441;57.164;-2.120;2023-03-21T09:29:17;99228.94;;;10.59;100.00
22550;BME280;11441;57.164;-2.120;2023-03-21T09:31:48;99234.44;;;10.52;100.00
22550;BME280;11441;57.164;-2.120;2023-03-21T09:34:15;99227.72;;;10.46;100.00
22550;BME280;11441;57.164;-2.120;2023-03-21T09:36:42;99222.25;;;10.60;100.00
22550;BME280;11441;57.164;-2.120;2023-03-21T09:39:14;99228.19;;;10.69;100.00
22550;BME280;11441;57.164;-2.120;2023-03-21T09:47:51;99195.91;;;10.91;100.00
22550;BME280;11441;57.164;-2.120;2023-03-21T09:50:20;99209.28;;;11.00;100.00
22550;BME280;11441;57.164;-2.120;2023-03-21T09:52:59;99205.75;;;10.92;100.00
22550;BME280;11441;57.164;-2.120;2023-03-21T09:55:32;99194.72;;;11.07;100.00
22550;BME280;11441;57.164;-2.120;2023-03-21T10:00:38;99192.34;;;11.20;100.00
22550;BME280;11441;57.164;-2.120;2023-03-21T10:03:19;99192.34;;;11.16;100.00
22550;BME280;11441;57.164;-2.120;2023-03-21T10:05:53;99190.00;;;11.14;100.00
22550;BME280;11441;57.164;-2.120;2023-03-21T10:08:28;99199.81;;;11.37;100.00
22550;BME280;11441;57.164;-2.120;2023-03-21T10:11:27;99191.53;;;11.37;100.00
22550;BME280;11441;57.164;-2.120;2023-03-21T10:14:01;99201.78;;;11.33;100.00
22550;BME280;11441;57.164;-2.120;2023-03-21T10:16:32;99191.16;;;11.28;100.00
22550;BME280;11441;57.164;-2.120;2023-03-21T10:19:05;99205.31;;;11.44;100.00
22550;BME280;11441;57.164;-2.120;2023-03-21T10:21:37;99202.53;;;11.55;100.00
22550;BME280;11441;57.164;-2.120;2023-03-21T10:24:26;99209.22;;;11.58;100.00
22550;BME280;11441;57.164;-2.120;2023-03-21T10:26:54;99213.94;;;11.61;100.00
22550;BME280;11441;57.164;-2.120;2023-03-21T10:29:26;99209.91;;;11.87;100.00
22550;BME280;11441;57.164;-2.120;2023-03-21T10:31:54;99220.19;;;11.83;100.00
22550;BME280;11441;57.164;-2.120;2023-03-21T10:34:31;99220.53;;;12.03;100.00
22550;BME280;11441;57.164;-2.120;2023-03-21T10:37:00;99223.66;;;12.12;100.00
22550;BME280;11441;57.164;-2.120;2023-03-21T10:39:38;99225.53;;;12.26;100.00
22550;BME280;11441;57.164;-2.120;2023-03-21T10:42:06;99217.25;;;12.26;100.00
22550;BME280;11441;57.164;-2.120;2023-03-21T10:44:46;99223.16;;;12.35;100.00
22550;BME280;11441;57.164;-2.120;2023-03-21T10:47:25;99218.91;;;12.13;100.00
22550;BME280;11441;57.164;-2.120;2023-03-21T10:50:14;99214.97;;;12.10;100.00
22550;BME280;11441;57.164;-2.120;2023-03-21T10:52:47;99211.94;;;12.60;100.00
22550;BME280;11441;57.164;-2.120;2023-03-21T10:55:53;99204.97;;;12.38;100.00
22550;BME280;11441;57.164;-2.120;2023-03-21T10:58:29;99201.16;;;12.21;100.00
22550;BME280;11441;57.164;-2.120;2023-03-21T11:01:06;99209.38;;;12.32;100.00
22550;BME280;11441;57.164;-2.120;2023-03-21T11:03:37;99199.91;;;12.25;100.00
22550;BME280;11441;57.164;-2.120;2023-03-21T11:08:50;99182.41;;;12.50;100.00
22550;BME280;11441;57.164;-2.120;2023-03-21T11:11:24;99184.75;;;12.55;100.00
22550;BME280;11441;57.164;-2.120;2023-03-21T11:14:01;99180.38;;;12.61;100.00
22550;BME280;11441;57.164;-2.120;2023-03-21T11:16:38;99176.94;;;12.43;100.00
22550;BME280;11441;57.164;-2.120;2023-03-21T11:19:14;99170.66;;;12.42;100.00
22550;BME280;11441;57.164;-2.120;2023-03-21T11:21:42;99168.56;;;12.57;100.00
22550;BME280;11441;57.164;-2.120;2023-03-21T11:24:15;99167.47;;;12.48;100.00
22550;BME280;11441;57.164;-2.120;2023-03-21T11:26:47;99172.84;;;12.66;100.00
22550;BME280;11441;57.164;-2.120;2023-03-21T11:29:54;99163.63;;;12.31;100.00
22550;BME280;11441;57.164;-2.120;2023-03-21T11:32:33;99154.19;;;12.28;100.00
22550;BME280;11441;57.164;-2.120;2023-03-21T11:35:06;99155.78;;;12.22;100.00
22550;BME280;11441;57.164;-2.120;2023-03-21T11:37:44;99150.91;;;12.44;100.00
22550;BME280;11441;57.164;-2.120;2023-03-21T11:40:30;99151.03;;;12.30;100.00
22550;BME280;11441;57.164;-2.120;2023-03-21T11:46:06;99144.53;;;12.54;100.00
22550;BME280;11441;57.164;-2.120;2023-03-21T11:48:45;99147.19;;;12.69;100.00
22550;BME280;11441;57.164;-2.120;2023-03-21T11:54:21;99153.84;;;13.16;100.00
22550;BME280;11441;57.164;-2.120;2023-03-21T11:56:57;99154.25;;;13.18;100.00
22550;BME280;11441;57.164;-2.120;2023-03-21T11:59:51;99153.34;;;13.29;100.00
22550;BME280;11441;57.164;-2.120;2023-03-21T12:02:54;99151.72;;;13.35;100.00
22550;BME280;11441;57.164;-2.120;2023-03-21T12:05:59;99158.44;;;13.30;100.00
22550;BME280;11441;57.164;-2.120;2023-03-21T12:08:35;99147.25;;;13.48;100.00
22550;BME280;11441;57.164;-2.120;2023-03-21T12:17:19;99133.94;;;13.36;100.00
22550;BME280;11441;57.164;-2.120;2023-03-21T12:26:17;99130.28;;;13.05;100.00
22550;BME280;11441;57.164;-2.120;2023-03-21T12:34:25;99132.34;;;13.38;100.00
22550;BME280;11441;57.164;-2.120;2023-03-21T12:39:54;99137.63;;;13.22;100.00
22550;BME280;11441;57.164;-2.120;2023-03-21T12:45:13;99119.69;;;13.37;100.00
22550;BME280;11441;57.164;-2.120;2023-03-21T12:47:47;99131.19;;;13.36;100.00
22550;BME280;11441;57.164;-2.120;2023-03-21T12:50:22;99131.97;;;13.36;100.00
22550;BME280;11441;57.164;-2.120;2023-03-21T12:52:55;99134.56;;;13.51;100.00
22550;BME280;11441;57.164;-2.120;2023-03-21T12:55:29;99126.13;;;13.62;100.00
22550;BME280;11441;57.164;-2.120;2023-03-21T12:58:14;99126.84;;;13.35;100.00
22550;BME280;11441;57.164;-2.120;2023-03-21T13:00:57;99134.97;;;13.49;100.00
22550;BME280;11441;57.164;-2.120;2023-03-21T13:03:31;99123.78;;;13.60;100.00
22550;BME280;11441;57.164;-2.120;2023-03-21T13:06:08;99118.00;;;13.82;100.00
22550;BME280;11441;57.164;-2.120;2023-03-21T13:11:42;99111.63;;;13.54;100.00
22550;BME280;11441;57.164;-2.120;2023-03-21T13:14:29;99105.25;;;13.88;100.00
22550;BME280;11441;57.164;-2.120;2023-03-21T13:17:05;99108.47;;;14.13;100.00
22550;BME280;11441;57.164;-2.120;2023-03-21T13:19:53;99100.03;;;14.21;100.00
22550;BME280;11441;57.164;-2.120;2023-03-21T13:22:25;99086.28;;;13.90;100.00
22550;BME280;11441;57.164;-2.120;2023-03-21T13:27:31;99082.94;;;14.02;100.00
22550;BME280;11441;57.164;-2.120;2023-03-21T13:30:21;99078.25;;;14.23;100.00
22550;BME280;11441;57.164;-2.120;2023-03-21T13:32:48;99075.00;;;14.04;100.00
22550;BME280;11441;57.164;-2.120;2023-03-21T13:35:23;99071.09;;;13.98;100.00
22550;BME280;11441;57.164;-2.120;2023-03-21T13:38:04;99070.81;;;14.20;100.00
22550;BME280;11441;57.164;-2.120;2023-03-21T13:40:50;99062.94;;;14.42;100.00
22550;BME280;11441;57.164;-2.120;2023-03-21T13:51:46;99060.03;;;13.71;100.00
22550;BME280;11441;57.164;-2.120;2023-03-21T13:54:20;99063.88;;;13.50;100.00
22550;BME280;11441;57.164;-2.120;2023-03-21T13:57:06;99060.94;;;13.26;100.00
22550;BME280;11441;57.164;-2.120;2023-03-21T14:03:05;99060.56;;;12.90;100.00
22550;BME280;11441;57.164;-2.120;2023-03-21T14:05:33;99055.72;;;12.97;100.00
22550;BME280;11441;57.164;-2.120;2023-03-21T14:08:08;99058.66;;;13.21;100.00
22550;BME280;11441;57.164;-2.120;2023-03-21T14:10:46;99036.25;;;13.12;100.00
22550;BME280;11441;57.164;-2.120;2023-03-21T14:13:33;99042.84;;;13.21;100.00
22550;BME280;11441;57.164;-2.120;2023-03-21T14:16:13;99039.28;;;13.21;100.00
22550;BME280;11441;57.164;-2.120;2023-03-21T14:18:47;99027.25;;;13.04;100.00
22550;BME280;11441;57.164;-2.120;2023-03-21T14:21:27;99042.19;;;13.10;100.00
22550;BME280;11441;57.164;-2.120;2023-03-21T14:24:06;99042.69;;;13.01;100.00
22550;BME280;11441;57.164;-2.120;2023-03-21T14:26:41;99043.59;;;13.26;100.00
22550;BME280;11441;57.164;-2.120;2023-03-21T14:29:16;99043.97;;;13.28;100.00
22550;BME280;11441;57.164;-2.120;2023-03-21T14:31:53;99032.59;;;13.22;100.00
22550;BME280;11441;57.164;-2.120;2023-03-21T14:34:22;99040.53;;;13.16;100.00
22550;BME280;11441;57.164;-2.120;2023-03-21T14:36:49;99031.59;;;13.05;100.00
22550;BME280;11441;57.164;-2.120;2023-03-21T14:39:31;99033.72;;;13.25;100.00
22550;BME280;11441;57.164;-2.120;2023-03-21T14:42:07;99025.50;;;13.17;100.00
22550;BME280;11441;57.164;-2.120;2023-03-21T14:44:39;99027.97;;;13.12;100.00
22550;BME280;11441;57.164;-2.120;2023-03-21T14:47:23;99025.66;;;13.07;100.00
22550;BME280;11441;57.164;-2.120;2023-03-21T14:49:50;99027.38;;;12.93;100.00
22550;BME280;11441;57.164;-2.120;2023-03-21T14:52:32;99028.88;;;13.01;100.00
22550;BME280;11441;57.164;-2.120;2023-03-21T14:55:00;99023.16;;;13.16;100.00